X  Schlie├čen METAR Luftfahrt Wetterdaten     EDDM Munich Airport
Temperatur
4°C Temperatur
2°C Taupunkt
87% Feuchtigkeit



Wind
5 km/h
3 MPS
1 M/S
3 KTS



Kein Wind
N
Aktuelle Wetterlage

Meistens vereinzelte Wolken Meistens vereinzelte Wolken
Luftdruck 1007.79 (hPa) - 29.76 (inHg)
Sichtweite 6 (Meile) - 9.7 (Km)
Flughafen
Flughafen Code EDDM

Position : Munich Airport
Entfernung: 25 (Km)

Metar:
EDDM 242250Z AUTO VRB03KT 9999 SCT045 04/02 Q1008 NOSIG

Zeit: 24-02-2024 23:50 CET